Time;durP1;ratioP1;P1;durP2;ratioP2;P2;SDS_P1;SDS_P2;PMS_P1;PMS_P2;Temp;Humidity;BMP_temperature;BMP_pressure;BME280_temperature;BME280_humidity;BME280_pressure;Samples;Min_cycle;Max_cycle;Signal;HPM_P1;HPM_P2
2022/02/20 00:01:53;;;;;;;7.07;1.20;;;5.70;99.90;;;;;;5066357;28;20383;-57
2022/02/20 00:04:18;;;;;;;5.63;0.88;;;6.10;99.90;;;;;;5068244;28;20380;-56
2022/02/20 00:06:44;;;;;;;8.50;1.03;;;6.80;99.90;;;;;;5069139;28;20466;-55
2022/02/20 00:09:10;;;;;;;6.17;1.10;;;5.40;99.90;;;;;;5068296;28;20415;-56
2022/02/20 00:11:36;;;;;;;6.72;1.20;;;5.20;99.90;;;;;;5069023;28;20391;-56
2022/02/20 00:14:02;;;;;;;8.27;1.45;;;5.30;99.90;;;;;;5068230;28;20391;-55
2022/02/20 00:16:27;;;;;;;7.50;1.10;;;5.30;99.90;;;;;;5067835;28;20513;-55
2022/02/20 00:18:53;;;;;;;6.07;0.90;;;5.30;99.90;;;;;;5069245;28;20407;-55
2022/02/20 00:21:19;;;;;;;5.82;1.30;;;5.20;99.90;;;;;;5068786;28;20384;-55
2022/02/20 00:23:44;;;;;;;6.80;1.10;;;5.10;99.90;;;;;;5069777;28;20380;-56
2022/02/20 00:26:10;;;;;;;5.63;1.13;;;5.00;99.90;;;;;;5069023;28;20419;-56
2022/02/20 00:28:36;;;;;;;5.97;1.20;;;4.90;99.90;;;;;;5069367;28;20426;-55
2022/02/20 00:31:01;;;;;;;7.20;1.30;;;4.90;99.90;;;;;;5068819;28;20449;-56
2022/02/20 00:33:27;;;;;;;5.00;1.05;;;4.80;99.90;;;;;;5069355;28;20371;-56
2022/02/20 00:35:53;;;;;;;4.33;0.90;;;5.10;99.90;;;;;;5069289;28;20732;-56
2022/02/20 00:38:19;;;;;;;6.40;1.30;;;4.80;99.90;;;;;;5068533;28;20379;-55
2022/02/20 00:40:45;;;;;;;4.65;0.80;;;4.90;99.90;;;;;;5051465;28;20742;-56
2022/02/20 00:43:12;;;;;;;6.17;1.20;;;4.80;99.90;;;;;;5068478;28;20380;-57
2022/02/20 00:45:38;;;;;;;7.13;1.40;;;4.90;99.90;;;;;;5069354;28;20927;-56
2022/02/20 00:48:05;;;;;;;7.55;1.30;;;4.80;99.90;;;;;;5058239;28;20420;-55
2022/02/20 00:50:31;;;;;;;6.50;1.38;;;4.90;99.90;;;;;;5059550;28;20435;-55
2022/02/20 00:52:57;;;;;;;6.65;1.17;;;4.90;99.90;;;;;;5055218;28;20811;-59
2022/02/20 00:55:25;;;;;;;5.45;1.25;;;4.90;99.90;;;;;;5061697;28;20467;-56
2022/02/20 00:57:52;;;;;;;7.68;1.30;;;4.80;99.90;;;;;;5069307;28;20437;-56
2022/02/20 01:00:17;;;;;;;6.40;1.13;;;4.90;99.90;;;;;;5068374;28;20618;-55
2022/02/20 01:02:43;;;;;;;4.93;0.87;;;5.00;99.90;;;;;;5068858;28;20865;-56
2022/02/20 01:05:10;;;;;;;4.75;1.00;;;5.80;99.90;;;;;;5040911;28;20720;-56
2022/02/20 01:07:36;;;;;;;4.63;1.02;;;4.90;99.90;;;;;;5048752;28;21306;-55
2022/02/20 01:10:05;;;;;;;7.57;1.33;;;4.90;99.90;;;;;;5048269;28;20420;-55
2022/02/20 01:12:30;;;;;;;9.55;1.55;;;4.80;99.90;;;;;;5055607;28;20763;-56
2022/02/20 01:14:56;;;;;;;7.90;1.20;;;4.90;99.90;;;;;;5068883;28;20380;-60
2022/02/20 01:17:22;;;;;;;4.22;0.88;;;5.00;99.90;;;;;;5051875;28;20802;-55
2022/02/20 01:19:48;;;;;;;5.05;1.45;;;4.90;99.90;;;;;;5052564;28;20413;-56
2022/02/20 01:22:13;;;;;;;4.80;1.20;;;4.90;99.90;;;;;;5051828;28;20431;-56
2022/02/20 01:24:39;;;;;;;6.20;0.70;;;4.90;99.90;;;;;;5052134;28;20839;-58
2022/02/20 01:27:05;;;;;;;5.80;1.30;;;4.80;99.90;;;;;;5068187;28;20441;-55
2022/02/20 01:29:31;;;;;;;5.80;1.00;;;4.90;99.90;;;;;;5072437;28;20462;-55
2022/02/20 01:31:57;;;;;;;6.87;1.40;;;4.90;99.90;;;;;;5071784;28;20474;-59
2022/02/20 01:34:22;;;;;;;4.63;1.00;;;5.50;99.90;;;;;;5071580;28;20852;-57
2022/02/20 01:36:48;;;;;;;4.10;0.80;;;6.40;99.90;;;;;;5072316;28;20750;-55
2022/02/20 01:39:14;;;;;;;6.90;1.10;;;4.80;99.90;;;;;;5071485;28;20395;-55
2022/02/20 01:41:40;;;;;;;5.17;1.10;;;4.90;99.90;;;;;;5059389;28;20445;-56
2022/02/20 01:44:07;;;;;;;7.18;1.10;;;4.90;99.90;;;;;;5051493;28;20736;-55
2022/02/20 01:46:32;;;;;;;10.18;1.65;;;5.40;99.90;;;;;;5034024;28;20931;-55
2022/02/20 01:48:58;;;;;;;6.90;1.30;;;4.90;99.90;;;;;;5051383;28;20499;-59
2022/02/20 01:51:24;;;;;;;5.50;1.20;;;4.80;99.90;;;;;;5051539;28;20421;-55
2022/02/20 01:53:50;;;;;;;9.60;1.50;;;5.00;99.90;;;;;;5051809;28;20380;-55
2022/02/20 01:56:16;;;;;;;5.60;1.27;;;5.00;99.90;;;;;;5050854;28;20389;-55
2022/02/20 01:58:42;;;;;;;6.72;0.98;;;5.10;99.90;;;;;;5051837;28;20393;-55
2022/02/20 02:01:08;;;;;;;5.55;1.20;;;5.00;99.90;;;;;;5050940;28;20384;-56
2022/02/20 02:03:36;;;;;;;5.45;1.10;;;5.00;99.90;;;;;;5051947;28;20381;-56
2022/02/20 02:06:01;;;;;;;5.70;1.10;;;5.20;99.90;;;;;;5050903;28;20400;-57
2022/02/20 02:08:27;;;;;;;8.70;1.00;;;5.10;99.90;;;;;;5050232;28;20457;-56
2022/02/20 02:10:53;;;;;;;6.03;1.00;;;5.50;99.90;;;;;;5051455;28;20747;-56
2022/02/20 02:13:18;;;;;;;4.67;1.00;;;5.20;99.90;;;;;;5050983;28;20381;-56
2022/02/20 02:15:52;;;;;;;6.23;1.07;;;5.10;99.90;;;;;;5051617;28;20385;-56
2022/02/20 02:18:18;;;;;;;10.02;1.63;;;5.20;99.90;;;;;;5050697;28;20400;-56
2022/02/20 02:20:44;;;;;;;6.03;1.45;;;5.20;99.90;;;;;;5051268;28;20394;-56
2022/02/20 02:23:11;;;;;;;7.05;1.27;;;5.20;99.90;;;;;;5049643;28;20488;-55
2022/02/20 02:25:38;;;;;;;5.82;1.10;;;5.20;99.90;;;;;;5050927;28;20374;-56
2022/02/20 02:28:04;;;;;;;8.10;1.30;;;5.30;99.90;;;;;;5050219;28;20411;-55
2022/02/20 02:30:30;;;;;;;6.43;1.20;;;5.20;99.90;;;;;;5033265;28;20465;-55
2022/02/20 02:32:56;;;;;;;6.07;0.90;;;5.20;99.90;;;;;;5051255;28;20386;-56
2022/02/20 02:35:22;;;;;;;7.10;0.90;;;5.20;99.90;;;;;;5050645;28;20861;-55
2022/02/20 02:37:47;;;;;;;6.13;1.20;;;5.20;99.90;;;;;;5057651;28;20399;-56
2022/02/20 02:40:13;;;;;;;4.60;0.90;;;5.80;99.90;;;;;;5062133;28;20404;-55
2022/02/20 02:42:39;;;;;;;5.47;1.00;;;5.30;99.90;;;;;;5052823;28;20390;-56
2022/02/20 02:45:05;;;;;;;6.07;1.50;;;5.40;99.90;;;;;;5069978;28;20395;-56
2022/02/20 02:47:31;;;;;;;6.70;1.10;;;5.40;99.90;;;;;;5057018;28;20421;-57
2022/02/20 02:49:57;;;;;;;8.48;1.17;;;5.40;99.90;;;;;;5050935;28;20512;-56
2022/02/20 02:52:22;;;;;;;6.10;0.80;;;5.40;99.90;;;;;;5050120;28;20405;-56
2022/02/20 02:54:48;;;;;;;9.27;1.03;;;5.30;99.90;;;;;;5050928;28;20393;-56
2022/02/20 02:57:14;;;;;;;8.10;1.17;;;5.40;99.90;;;;;;5050200;28;20431;-56
2022/02/20 02:59:40;;;;;;;5.10;0.90;;;5.50;99.90;;;;;;5050463;28;20389;-56
2022/02/20 03:02:07;;;;;;;6.40;1.20;;;5.30;99.90;;;;;;5050103;28;20385;-56
2022/02/20 03:04:33;;;;;;;4.55;0.80;;;5.50;99.90;;;;;;5049460;28;20404;-56
2022/02/20 03:06:59;;;;;;;10.15;2.00;;;5.60;99.90;;;;;;5050216;28;20381;-60
2022/02/20 03:09:25;;;;;;;4.30;1.00;;;5.50;99.90;;;;;;5050305;28;20415;-56
2022/02/20 03:11:50;;;;;;;4.73;0.90;;;5.50;99.90;;;;;;5050579;28;20477;-56
2022/02/20 03:14:16;;;;;;;5.07;1.00;;;5.60;99.90;;;;;;5049745;28;20484;-55
2022/02/20 03:16:42;;;;;;;6.33;1.20;;;5.50;99.90;;;;;;5049676;28;20392;-56
2022/02/20 03:19:08;;;;;;;4.70;0.80;;;5.50;99.90;;;;;;5049449;28;20401;-57
2022/02/20 03:21:34;;;;;;;8.73;1.50;;;5.40;99.90;;;;;;5050198;28;20420;-54
2022/02/20 03:24:00;;;;;;;8.25;1.40;;;5.50;99.90;;;;;;5050057;28;20410;-58
2022/02/20 03:26:25;;;;;;;6.50;0.90;;;5.60;99.90;;;;;;5049963;28;20811;-56
2022/02/20 03:28:51;;;;;;;6.47;1.05;;;5.60;99.90;;;;;;5050099;28;20491;-57
2022/02/20 03:31:17;;;;;;;9.73;1.15;;;5.70;99.90;;;;;;5049493;28;20798;-56
2022/02/20 03:33:43;;;;;;;8.85;1.10;;;5.70;99.90;;;;;;5049748;28;20506;-56
2022/02/20 03:36:09;;;;;;;8.17;1.10;;;5.70;99.90;;;;;;5048784;28;20413;-55
2022/02/20 03:38:35;;;;;;;7.05;1.30;;;5.60;99.90;;;;;;5049978;28;20397;-55
2022/02/20 03:41:01;;;;;;;6.40;1.10;;;5.60;99.90;;;;;;5049168;28;20475;-59
2022/02/20 03:43:27;;;;;;;7.45;1.20;;;5.70;99.90;;;;;;5049406;28;20381;-55
2022/02/20 03:45:53;;;;;;;8.52;1.10;;;5.70;99.90;;;;;;5049691;28;20769;-56
2022/02/20 03:48:18;;;;;;;6.83;0.70;;;5.70;99.90;;;;;;5048691;28;20902;-56
2022/02/20 03:50:44;;;;;;;6.27;0.90;;;5.70;99.90;;;;;;5049349;28;20443;-55
2022/02/20 03:53:09;;;;;;;5.90;1.00;;;5.60;99.90;;;;;;5048881;28;20376;-55
2022/02/20 03:55:35;;;;;;;7.00;1.00;;;5.60;99.90;;;;;;5031626;28;20720;-56
2022/02/20 03:58:01;;;;;;;5.13;0.90;;;5.60;99.90;;;;;;5049040;28;20396;-59
2022/02/20 04:00:27;;;;;;;7.10;1.10;;;5.60;99.90;;;;;;5049177;28;20382;-55
2022/02/20 04:02:53;;;;;;;5.95;1.00;;;5.70;99.90;;;;;;5049277;28;20717;-55
2022/02/20 04:05:20;;;;;;;4.60;0.97;;;5.60;99.90;;;;;;5048686;28;20447;-55
2022/02/20 04:07:46;;;;;;;7.30;0.73;;;5.60;99.90;;;;;;5049560;28;20384;-55
2022/02/20 04:10:13;;;;;;;4.60;0.90;;;5.50;99.90;;;;;;5048308;28;20381;-55
2022/02/20 04:12:39;;;;;;;6.57;1.08;;;5.50;99.90;;;;;;5049372;28;20436;-55
2022/02/20 04:15:10;;;;;;;4.50;0.90;;;5.40;99.90;;;;;;5048463;28;20389;-56
2022/02/20 04:17:44;;;;;;;7.95;0.93;;;5.60;99.90;;;;;;5049314;28;20496;-55
2022/02/20 04:20:12;;;;;;;7.25;1.10;;;5.60;99.90;;;;;;5047953;28;20409;-55
2022/02/20 04:22:39;;;;;;;5.30;0.90;;;5.70;99.90;;;;;;5049267;28;20392;-56
2022/02/20 04:25:05;;;;;;;5.18;0.80;;;5.70;99.90;;;;;;5048471;28;20911;-57
2022/02/20 04:27:32;;;;;;;5.10;0.80;;;5.50;99.90;;;;;;5049079;28;20427;-56
2022/02/20 04:29:57;;;;;;;5.30;0.90;;;5.50;99.90;;;;;;5055313;28;20493;-56
2022/02/20 04:32:23;;;;;;;5.90;0.80;;;5.50;99.90;;;;;;5054322;28;21190;-56
2022/02/20 04:34:49;;;;;;;5.30;0.90;;;5.50;99.90;;;;;;5049180;28;20393;-55
2022/02/20 04:37:14;;;;;;;4.03;0.90;;;5.40;99.90;;;;;;5048244;28;20770;-56
2022/02/20 04:39:40;;;;;;;4.93;0.70;;;5.40;99.90;;;;;;5048281;28;20819;-55
2022/02/20 04:42:06;;;;;;;4.88;0.80;;;5.30;99.90;;;;;;5048415;28;20438;-56
2022/02/20 04:44:31;;;;;;;3.40;0.57;;;5.30;99.90;;;;;;5049323;28;20385;-55
2022/02/20 04:46:57;;;;;;;3.83;0.70;;;5.30;99.90;;;;;;5050815;28;20763;-56
2022/02/20 04:49:23;;;;;;;4.40;0.70;;;5.30;99.90;;;;;;5052464;28;21016;-55
2022/02/20 04:51:48;;;;;;;4.30;0.90;;;5.30;99.90;;;;;;5052949;28;20389;-55
2022/02/20 04:54:15;;;;;;;4.88;0.80;;;5.30;99.90;;;;;;5052025;28;20392;-55
2022/02/20 04:56:42;;;;;;;5.45;0.90;;;5.30;99.90;;;;;;5052957;28;20413;-55
2022/02/20 04:59:12;;;;;;;3.80;0.70;;;5.30;99.90;;;;;;5052148;28;20385;-55
2022/02/20 05:01:38;;;;;;;3.83;0.60;;;5.80;99.90;;;;;;5052726;28;20523;-55
2022/02/20 05:04:05;;;;;;;4.70;0.60;;;5.30;99.90;;;;;;5051663;28;20381;-57
2022/02/20 05:06:30;;;;;;;3.88;0.60;;;5.40;99.90;;;;;;5052132;28;20724;-56
2022/02/20 05:08:57;;;;;;;3.60;0.70;;;5.40;99.90;;;;;;5052188;28;20408;-55
2022/02/20 05:11:27;;;;;;;4.30;0.70;;;5.40;99.90;;;;;;5051753;28;20389;-54
2022/02/20 05:13:55;;;;;;;4.40;0.60;;;5.40;99.90;;;;;;5052444;28;20846;-54
2022/02/20 05:16:22;;;;;;;4.10;0.70;;;5.40;99.90;;;;;;5051834;28;20378;-54
2022/02/20 05:18:47;;;;;;;4.20;0.60;;;5.50;99.90;;;;;;5052335;28;20500;-54
2022/02/20 05:21:13;;;;;;;4.27;0.70;;;5.60;99.90;;;;;;5051702;28;20472;-54
2022/02/20 05:23:39;;;;;;;4.23;0.60;;;5.60;99.90;;;;;;5052472;28;20400;-54
2022/02/20 05:26:05;;;;;;;4.27;0.80;;;5.70;99.90;;;;;;5051553;28;20377;-57
2022/02/20 05:28:31;;;;;;;4.55;0.90;;;5.70;99.90;;;;;;5051983;28;20416;-54
2022/02/20 05:30:56;;;;;;;4.50;0.70;;;5.70;99.90;;;;;;5052478;28;20433;-55
2022/02/20 05:33:22;;;;;;;3.97;0.80;;;5.60;99.90;;;;;;5051265;28;20377;-54
2022/02/20 05:35:48;;;;;;;4.18;0.60;;;5.50;99.90;;;;;;5051993;28;20420;-54
2022/02/20 05:38:16;;;;;;;5.10;0.70;;;5.50;99.90;;;;;;5051120;28;20386;-55
2022/02/20 05:40:41;;;;;;;3.85;0.65;;;5.50;99.90;;;;;;5051978;28;20370;-55
2022/02/20 05:43:07;;;;;;;4.00;0.70;;;6.20;99.90;;;;;;5051003;28;20443;-54
2022/02/20 05:45:33;;;;;;;4.50;0.70;;;5.50;99.90;;;;;;5052036;28;20427;-54
2022/02/20 05:47:58;;;;;;;4.80;0.70;;;5.70;99.90;;;;;;5056515;28;20515;-55
2022/02/20 05:50:24;;;;;;;4.50;0.60;;;5.50;99.90;;;;;;5059050;28;20520;-55
2022/02/20 05:52:50;;;;;;;4.22;0.60;;;5.60;99.90;;;;;;5058906;28;20471;-54
2022/02/20 05:55:15;;;;;;;4.50;0.50;;;5.60;99.90;;;;;;5066922;28;20904;-54
2022/02/20 05:57:50;;;;;;;4.50;0.80;;;5.50;99.90;;;;;;5051538;28;20381;-56
2022/02/20 06:00:21;;;;;;;3.75;0.80;;;5.50;99.90;;;;;;5050971;28;20373;-54
2022/02/20 06:02:46;;;;;;;5.03;0.70;;;5.50;99.90;;;;;;5051485;28;20433;-55
2022/02/20 06:05:13;;;;;;;4.00;0.73;;;5.50;99.90;;;;;;5050760;28;20778;-54
2022/02/20 06:07:39;;;;;;;4.53;1.00;;;5.50;99.90;;;;;;5051386;28;20377;-55
2022/02/20 06:10:06;;;;;;;6.30;0.70;;;5.50;99.90;;;;;;5053068;28;20893;-58
2022/02/20 06:12:32;;;;;;;3.92;0.73;;;5.60;99.90;;;;;;5053294;28;20853;-54
2022/02/20 06:14:58;;;;;;;5.50;1.08;;;5.60;99.90;;;;;;5057080;28;20476;-55
2022/02/20 06:17:24;;;;;;;4.53;0.87;;;5.60;99.90;;;;;;5050819;28;20389;-54
2022/02/20 06:19:50;;;;;;;4.00;0.70;;;5.60;99.90;;;;;;5057772;28;20423;-54
2022/02/20 06:22:17;;;;;;;6.20;0.70;;;5.70;99.90;;;;;;5056606;28;20741;-54
2022/02/20 06:24:46;;;;;;;3.60;0.70;;;5.70;99.90;;;;;;5057902;28;20765;-54
2022/02/20 06:27:11;;;;;;;4.85;0.70;;;5.70;99.90;;;;;;5050404;28;20378;-54
2022/02/20 06:29:37;;;;;;;3.90;0.57;;;5.70;99.90;;;;;;5051094;28;20415;-54
2022/02/20 06:32:04;;;;;;;3.70;0.70;;;5.70;99.90;;;;;;5050915;28;20381;-58
2022/02/20 06:34:29;;;;;;;3.50;0.50;;;5.70;99.90;;;;;;5050954;28;20379;-54
2022/02/20 06:36:55;;;;;;;3.53;0.50;;;5.70;99.90;;;;;;5050908;28;20382;-54
2022/02/20 06:39:21;;;;;;;7.90;0.70;;;5.70;99.90;;;;;;5050047;28;20420;-54
2022/02/20 06:41:46;;;;;;;3.70;0.60;;;5.70;99.90;;;;;;5050377;28;20384;-55
2022/02/20 06:44:12;;;;;;;3.30;0.43;;;5.80;99.90;;;;;;5050123;28;20424;-54
2022/02/20 06:46:38;;;;;;;5.35;0.70;;;5.20;99.90;;;;;;5050779;28;20391;-55
2022/02/20 06:49:07;;;;;;;3.53;0.60;;;5.80;99.90;;;;;;5050069;28;20891;-59
2022/02/20 06:51:33;;;;;;;4.35;0.60;;;4.80;99.90;;;;;;5053478;28;20575;-54
2022/02/20 06:53:58;;;;;;;3.40;0.50;;;6.70;99.90;;;;;;5062217;28;20433;-54
2022/02/20 06:56:24;;;;;;;3.10;0.30;;;5.90;99.90;;;;;;5054945;28;21065;-54
2022/02/20 06:58:50;;;;;;;3.65;0.50;;;5.80;99.90;;;;;;5058512;28;20411;-54
2022/02/20 07:01:15;;;;;;;4.00;0.50;;;5.50;99.90;;;;;;5069489;28;20462;-54
2022/02/20 07:03:41;;;;;;;4.40;0.32;;;5.80;99.90;;;;;;5067522;28;21010;-54
2022/02/20 07:06:08;;;;;;;3.20;0.40;;;5.20;99.90;;;;;;5065834;28;20498;-55
2022/02/20 07:08:34;;;;;;;3.50;0.40;;;5.80;99.90;;;;;;5070067;28;20404;-55
2022/02/20 07:10:59;;;;;;;3.30;0.50;;;5.80;99.90;;;;;;5069882;28;20926;-55
2022/02/20 07:13:25;;;;;;;4.70;0.60;;;5.90;99.90;;;;;;5069304;28;20432;-55
2022/02/20 07:15:51;;;;;;;3.65;0.40;;;5.90;99.90;;;;;;5070207;28;20372;-55
2022/02/20 07:18:16;;;;;;;4.55;0.70;;;6.20;99.90;;;;;;5069198;28;20406;-55
2022/02/20 07:20:42;;;;;;;3.50;0.40;;;5.90;99.90;;;;;;5069211;28;20383;-55
2022/02/20 07:23:09;;;;;;;3.30;0.60;;;5.90;99.90;;;;;;5068887;28;20380;-55
2022/02/20 07:25:35;;;;;;;4.72;0.68;;;6.00;99.90;;;;;;5059404;28;20400;-55
2022/02/20 07:28:01;;;;;;;3.70;0.50;;;6.00;99.90;;;;;;5066931;28;20725;-55
2022/02/20 07:30:28;;;;;;;3.10;0.40;;;5.90;99.90;;;;;;5068714;28;20917;-55
2022/02/20 07:33:07;;;;;;;3.13;0.40;;;6.00;99.90;;;;;;5066871;28;20453;-55
2022/02/20 07:35:37;;;;;;;3.80;0.50;;;5.90;99.90;;;;;;5066304;28;20761;-56
2022/02/20 07:38:03;;;;;;;3.80;0.60;;;6.00;99.90;;;;;;5069608;28;20384;-54
2022/02/20 07:40:29;;;;;;;5.10;0.60;;;6.00;99.90;;;;;;5068414;28;20383;-55
2022/02/20 07:42:56;;;;;;;4.30;0.50;;;6.10;99.90;;;;;;5064061;28;20764;-55
2022/02/20 07:45:23;;;;;;;5.10;0.82;;;6.10;99.90;;;;;;5068284;28;20467;-55
2022/02/20 07:47:52;;;;;;;3.80;0.50;;;6.20;99.90;;;;;;5069074;28;20392;-55
2022/02/20 07:50:23;;;;;;;4.10;0.60;;;7.50;99.90;;;;;;5068183;28;20404;-55
2022/02/20 07:52:49;;;;;;;3.10;0.40;;;6.20;99.90;;;;;;5069432;28;20425;-55
2022/02/20 07:55:16;;;;;;;3.33;0.45;;;6.70;99.90;;;;;;5068764;28;20384;-55
2022/02/20 07:57:43;;;;;;;3.92;0.70;;;6.20;99.90;;;;;;5069550;28;20809;-55
2022/02/20 08:00:10;;;;;;;7.00;0.80;;;6.30;99.90;;;;;;5064174;28;20400;-55
2022/02/20 08:02:36;;;;;;;3.90;0.60;;;6.30;99.90;;;;;;5063126;28;20495;-55
2022/02/20 08:05:01;;;;;;;3.67;0.80;;;6.40;99.90;;;;;;5052671;28;20821;-55
2022/02/20 08:07:27;;;;;;;4.65;0.80;;;6.90;99.90;;;;;;5056920;28;20396;-55
2022/02/20 08:09:53;;;;;;;5.20;0.60;;;6.60;99.90;;;;;;5063698;28;20416;-55
2022/02/20 08:12:18;;;;;;;3.83;0.40;;;6.70;99.90;;;;;;5064185;28;20412;-57
2022/02/20 08:14:44;;;;;;;4.60;0.60;;;7.20;99.90;;;;;;5062254;28;20429;-52
2022/02/20 08:17:10;;;;;;;5.03;0.50;;;8.00;99.90;;;;;;5044451;28;20452;-54
2022/02/20 08:19:36;;;;;;;5.30;0.60;;;8.80;99.90;;;;;;5061461;28;20415;-53
2022/02/20 08:22:01;;;;;;;3.90;0.63;;;8.70;99.90;;;;;;5060753;28;20770;-53
2022/02/20 08:24:27;;;;;;;4.40;0.70;;;8.60;99.90;;;;;;5066688;28;20384;-54
2022/02/20 08:26:53;;;;;;;3.80;0.60;;;8.50;99.90;;;;;;5059256;28;20951;-53
2022/02/20 08:29:21;;;;;;;5.45;0.75;;;8.20;99.90;;;;;;5061190;28;20481;-53
2022/02/20 08:31:48;;;;;;;4.00;0.80;;;7.70;99.90;;;;;;5065917;28;20406;-53
2022/02/20 08:34:14;;;;;;;4.60;0.60;;;7.50;99.90;;;;;;5055423;28;20399;-56
2022/02/20 08:36:39;;;;;;;5.13;0.60;;;7.40;99.90;;;;;;5061655;28;20401;-53
2022/02/20 08:39:05;;;;;;;5.17;0.70;;;7.40;99.90;;;;;;5065408;28;20405;-56
2022/02/20 08:41:31;;;;;;;3.85;0.60;;;7.60;99.90;;;;;;5056378;28;20913;-54
2022/02/20 08:43:56;;;;;;;4.00;0.63;;;7.70;99.90;;;;;;5060662;28;20784;-54
2022/02/20 08:46:22;;;;;;;4.10;0.70;;;7.70;99.90;;;;;;5064273;28;20397;-53
2022/02/20 08:48:48;;;;;;;4.10;0.70;;;7.80;99.90;;;;;;5063308;28;20499;-53
2022/02/20 08:51:15;;;;;;;4.30;0.60;;;7.90;99.90;;;;;;5063111;28;20413;-53
2022/02/20 08:53:40;;;;;;;5.93;0.82;;;7.70;99.90;;;;;;5060866;28;20488;-54
2022/02/20 08:56:07;;;;;;;5.38;0.40;;;7.80;99.90;;;;;;5060574;28;20487;-57
2022/02/20 08:58:33;;;;;;;4.40;0.65;;;7.70;99.90;;;;;;5058336;28;20474;-53
2022/02/20 09:01:00;;;;;;;6.00;0.70;;;7.90;99.90;;;;;;5059547;28;20447;-53
2022/02/20 09:03:26;;;;;;;4.70;0.60;;;8.10;99.90;;;;;;5056349;28;20393;-53
2022/02/20 09:05:52;;;;;;;4.70;0.60;;;8.10;99.90;;;;;;5059519;28;20881;-54
2022/02/20 09:08:17;;;;;;;6.70;0.80;;;8.30;99.90;;;;;;5056923;28;20443;-53
2022/02/20 09:10:43;;;;;;;6.47;0.90;;;8.50;99.90;;;;;;5061187;28;20401;-53
2022/02/20 09:13:10;;;;;;;4.60;0.50;;;8.40;99.90;;;;;;5061393;28;20413;-57
2022/02/20 09:15:36;;;;;;;3.70;0.70;;;8.40;99.90;;;;;;5062252;28;20882;-53
2022/02/20 09:18:04;;;;;;;3.40;0.50;;;8.40;99.90;;;;;;5047968;28;20396;-54
2022/02/20 09:20:30;;;;;;;4.63;0.52;;;8.50;99.90;;;;;;5059672;28;20539;-54
2022/02/20 09:22:55;;;;;;;4.60;0.57;;;8.30;99.90;;;;;;5055663;28;20555;-54
2022/02/20 09:25:21;;;;;;;3.95;0.63;;;8.30;99.90;;;;;;5064816;28;20395;-53
2022/02/20 09:27:47;;;;;;;3.80;0.50;;;8.30;99.90;;;;;;5061054;28;20453;-54
2022/02/20 09:30:12;;;;;;;4.32;0.82;;;8.30;99.90;;;;;;5060590;28;20414;-54
2022/02/20 09:32:39;;;;;;;4.18;0.70;;;8.30;99.90;;;;;;5059996;28;20425;-53
2022/02/20 09:35:05;;;;;;;3.78;0.60;;;8.40;99.90;;;;;;5056420;28;20462;-53
2022/02/20 09:37:31;;;;;;;3.65;0.50;;;8.50;99.90;;;;;;5057333;28;20411;-53
2022/02/20 09:39:56;;;;;;;5.10;0.70;;;8.40;99.90;;;;;;5057970;28;20391;-53
2022/02/20 09:42:23;;;;;;;4.40;0.55;;;8.30;99.90;;;;;;5057147;28;20400;-57
2022/02/20 09:44:49;;;;;;;4.60;0.40;;;8.20;99.90;;;;;;5060166;28;20400;-54
2022/02/20 09:47:15;;;;;;;3.50;0.50;;;8.30;99.90;;;;;;5066332;28;20515;-53
2022/02/20 09:49:42;;;;;;;3.70;0.60;;;8.30;99.90;;;;;;5062035;28;20419;-53
2022/02/20 09:52:08;;;;;;;4.60;0.65;;;8.30;99.90;;;;;;5062540;28;20426;-57
2022/02/20 09:54:34;;;;;;;4.40;0.60;;;8.30;99.90;;;;;;5063793;28;20412;-55
2022/02/20 09:57:00;;;;;;;6.05;0.50;;;8.30;99.90;;;;;;5065853;28;20406;-53
2022/02/20 09:59:25;;;;;;;3.90;0.67;;;8.30;99.90;;;;;;5057335;28;20407;-53
2022/02/20 10:02:13;;;;;;;3.70;0.55;;;8.30;99.90;;;;;;5058923;28;20435;-55
2022/02/20 10:04:53;;;;;;;4.30;0.60;;;8.40;99.90;;;;;;5064712;28;20375;-53
2022/02/20 10:07:38;;;;;;;3.50;0.50;;;8.50;99.90;;;;;;5057952;28;20406;-53
2022/02/20 10:10:16;;;;;;;3.60;0.50;;;8.80;99.90;;;;;;5061120;28;20471;-55
2022/02/20 10:12:43;;;;;;;4.20;0.70;;;8.80;99.90;;;;;;5057478;28;20409;-53
2022/02/20 10:15:39;;;;;;;3.50;0.50;;;8.70;99.90;;;;;;5069604;28;20408;-58
2022/02/20 10:18:23;;;;;;;5.20;0.70;;;8.90;99.90;;;;;;5061969;28;20498;-54
2022/02/20 10:20:59;;;;;;;3.50;0.50;;;9.30;99.90;;;;;;5046852;28;20553;-54
2022/02/20 10:23:35;;;;;;;3.45;0.50;;;9.50;99.90;;;;;;5057636;28;20397;-54
2022/02/20 10:26:11;;;;;;;3.60;0.50;;;9.30;99.90;;;;;;5059590;28;20400;-54
2022/02/20 10:28:56;;;;;;;3.58;0.40;;;9.20;99.90;;;;;;5058799;28;20467;-55
2022/02/20 10:31:36;;;;;;;4.47;0.57;;;9.70;99.90;;;;;;5055155;28;20898;-55
2022/02/20 10:34:11;;;;;;;4.10;0.50;;;9.90;99.90;;;;;;5061197;28;20409;-57
2022/02/20 10:36:54;;;;;;;3.70;0.50;;;10.00;99.90;;;;;;5043494;28;20402;-56
2022/02/20 10:39:27;;;;;;;4.00;0.60;;;10.30;99.90;;;;;;5058702;28;20435;-55
2022/02/20 10:42:01;;;;;;;3.92;0.60;;;10.30;99.90;;;;;;5060637;28;20406;-55
2022/02/20 10:44:27;;;;;;;4.20;0.60;;;10.10;99.90;;;;;;5043598;28;20496;-55
2022/02/20 10:47:14;;;;;;;4.15;0.50;;;10.00;99.90;;;;;;5063991;28;20407;-55
2022/02/20 10:49:40;;;;;;;4.00;0.60;;;9.60;99.90;;;;;;5060031;28;20417;-55
2022/02/20 10:52:18;;;;;;;3.83;0.55;;;9.70;99.90;;;;;;5063941;28;20423;-54
2022/02/20 10:55:02;;;;;;;6.45;0.70;;;9.80;99.90;;;;;;5061123;28;20389;-55
2022/02/20 10:57:35;;;;;;;3.60;0.50;;;9.90;99.90;;;;;;5060950;28;20431;-54
2022/02/20 11:00:14;;;;;;;4.00;0.50;;;9.80;99.90;;;;;;5063726;28;20403;-55
2022/02/20 11:02:40;;;;;;;4.20;0.50;;;9.70;99.90;;;;;;5066146;28;20412;-56
2022/02/20 11:05:07;;;;;;;3.70;0.43;;;10.10;99.90;;;;;;5063341;28;20422;-55
2022/02/20 11:07:37;;;;;;;4.10;0.50;;;10.20;99.90;;;;;;5064961;28;20445;-55
2022/02/20 11:10:10;;;;;;;4.00;0.90;;;9.90;99.90;;;;;;5063759;28;20414;-55
2022/02/20 11:12:37;;;;;;;4.20;0.50;;;10.00;99.90;;;;;;5056958;28;20416;-55
2022/02/20 11:15:05;;;;;;;3.80;0.50;;;10.10;99.90;;;;;;5061923;28;20385;-54
2022/02/20 11:17:31;;;;;;;3.40;0.47;;;10.10;99.90;;;;;;5066452;28;20432;-55
2022/02/20 11:19:58;;;;;;;3.45;0.50;;;10.10;99.90;;;;;;5070541;28;20416;-55
2022/02/20 11:22:32;;;;;;;4.00;0.47;;;9.80;99.90;;;;;;5067895;28;20471;-55
2022/02/20 11:24:59;;;;;;;3.40;0.40;;;9.60;99.90;;;;;;5089828;28;20393;-55
2022/02/20 11:27:26;;;;;;;4.50;0.50;;;9.50;99.90;;;;;;5089033;28;20495;-54
2022/02/20 11:29:52;;;;;;;3.88;0.50;;;9.50;99.90;;;;;;5090248;28;20461;-55
2022/02/20 11:32:20;;;;;;;3.57;0.60;;;9.70;99.90;;;;;;5089634;28;20382;-55
2022/02/20 11:34:47;;;;;;;4.13;0.50;;;9.80;99.90;;;;;;5079900;28;20423;-55
2022/02/20 11:37:15;;;;;;;3.50;0.40;;;9.80;99.90;;;;;;5068789;28;20376;-56
2022/02/20 11:40:00;;;;;;;3.30;0.32;;;9.50;99.90;;;;;;5069824;28;20384;-54
2022/02/20 11:42:26;;;;;;;3.78;0.50;;;9.40;99.90;;;;;;5068267;28;20388;-58
2022/02/20 11:44:55;;;;;;;4.75;0.60;;;9.40;99.90;;;;;;5069697;28;20726;-55
2022/02/20 11:47:42;;;;;;;3.75;0.50;;;9.70;99.90;;;;;;5069018;28;20396;-55
2022/02/20 11:50:17;;;;;;;4.20;0.50;;;9.60;99.90;;;;;;5051352;28;20753;-55
2022/02/20 11:52:48;;;;;;;3.87;0.50;;;9.50;99.90;;;;;;5069500;28;20384;-55
2022/02/20 11:55:16;;;;;;;3.70;0.70;;;9.80;99.90;;;;;;5068372;28;20944;-56
2022/02/20 11:57:44;;;;;;;3.70;0.50;;;9.50;99.90;;;;;;5069409;28;20402;-55
2022/02/20 12:00:20;;;;;;;3.70;0.50;;;9.60;99.90;;;;;;5069208;28;20433;-59
2022/02/20 12:03:06;;;;;;;3.50;0.50;;;9.60;99.90;;;;;;5052529;28;20380;-55
2022/02/20 12:05:35;;;;;;;4.20;0.50;;;9.50;99.90;;;;;;5032850;28;20387;-55
2022/02/20 12:08:04;;;;;;;3.63;0.55;;;9.40;99.90;;;;;;5069059;28;20784;-55
2022/02/20 12:10:32;;;;;;;5.10;0.50;;;9.30;99.90;;;;;;5068893;28;20421;-54
2022/02/20 12:13:27;;;;;;;3.60;0.40;;;9.30;99.90;;;;;;5074754;28;20732;-54
2022/02/20 12:15:58;;;;;;;3.70;0.50;;;9.40;99.90;;;;;;5051230;28;20898;-55
2022/02/20 12:18:26;;;;;;;3.70;0.50;;;9.60;99.90;;;;;;5086730;28;20459;-55
2022/02/20 12:20:51;;;;;;;4.00;0.50;;;9.60;99.90;;;;;;5076632;28;20398;-55
2022/02/20 12:23:34;;;;;;;4.50;0.50;;;9.60;99.90;;;;;;5068626;28;20384;-57
2022/02/20 12:26:03;;;;;;;4.05;0.60;;;9.50;99.90;;;;;;5031393;28;20396;-55
2022/02/20 12:28:42;;;;;;;3.53;0.47;;;9.60;99.90;;;;;;5047978;28;20484;-54
2022/02/20 12:31:29;;;;;;;3.90;0.60;;;9.50;99.90;;;;;;5049183;28;20435;-55
2022/02/20 12:33:55;;;;;;;3.40;0.40;;;9.60;99.90;;;;;;5049246;28;20373;-54
2022/02/20 12:36:27;;;;;;;3.53;0.50;;;9.60;99.90;;;;;;5030574;28;20747;-54
2022/02/20 12:38:57;;;;;;;3.90;0.50;;;9.60;99.90;;;;;;5048921;28;20381;-54
2022/02/20 12:41:24;;;;;;;4.20;0.50;;;9.50;99.90;;;;;;5048200;28;20382;-54
2022/02/20 12:43:51;;;;;;;3.80;0.55;;;9.40;99.90;;;;;;5048346;28;20875;-54
2022/02/20 12:46:18;;;;;;;4.00;0.60;;;9.40;99.90;;;;;;5046770;28;20393;-54
2022/02/20 12:48:44;;;;;;;4.20;0.50;;;9.60;99.90;;;;;;5030748;28;20898;-54
2022/02/20 12:51:11;;;;;;;3.90;0.55;;;9.70;99.90;;;;;;5048806;28;20408;-55
2022/02/20 12:53:37;;;;;;;3.80;0.60;;;9.70;99.90;;;;;;5048245;28;20396;-54
2022/02/20 12:56:04;;;;;;;4.15;0.60;;;9.80;99.90;;;;;;5048923;28;20419;-55
2022/02/20 12:58:30;;;;;;;4.28;0.70;;;10.00;99.90;;;;;;5048202;28;20386;-55